createdAt,value
2022-10-06T00:00:09.520Z,16.9
2022-10-06T00:03:09.659Z,17.1
2022-10-06T00:06:09.453Z,17
2022-10-06T00:09:09.475Z,17
2022-10-06T00:12:09.467Z,16.9
2022-10-06T00:15:09.473Z,17
2022-10-06T00:18:09.602Z,17.1
2022-10-06T00:21:09.429Z,17.1
2022-10-06T00:24:09.517Z,17.1
2022-10-06T00:27:09.491Z,17.2
2022-10-06T00:30:09.523Z,17.2
2022-10-06T00:33:09.472Z,17.2
2022-10-06T00:36:09.583Z,17.2
2022-10-06T00:39:09.510Z,17.2
2022-10-06T00:42:09.530Z,17.2
2022-10-06T00:45:09.502Z,17.2
2022-10-06T00:48:09.478Z,17.2
2022-10-06T00:51:09.486Z,17.2
2022-10-06T00:54:09.858Z,17.2
2022-10-06T00:57:09.466Z,17.2
2022-10-06T01:00:09.490Z,17.2
2022-10-06T01:03:09.993Z,17.2
2022-10-06T01:06:09.482Z,17.1
2022-10-06T01:09:09.498Z,17.2
2022-10-06T01:12:09.466Z,17.2
2022-10-06T01:15:09.503Z,17.2
2022-10-06T01:18:09.485Z,17
2022-10-06T01:21:09.592Z,16.5
2022-10-06T01:24:09.574Z,16.2
2022-10-06T01:27:09.543Z,15.1
2022-10-06T01:30:09.517Z,14.2
2022-10-06T01:33:09.523Z,13.8
2022-10-06T01:36:09.488Z,13.6
2022-10-06T01:39:09.605Z,13.4
2022-10-06T01:42:09.591Z,13.3
2022-10-06T01:45:09.545Z,13.2
2022-10-06T01:48:09.441Z,13.1
2022-10-06T01:51:09.501Z,13.1
2022-10-06T01:54:09.518Z,13.1
2022-10-06T01:57:09.547Z,13.1
2022-10-06T02:00:09.547Z,13.1
2022-10-06T02:03:09.454Z,13.2
2022-10-06T02:06:10.233Z,13.2
2022-10-06T02:09:09.549Z,13.1
2022-10-06T02:12:09.573Z,13.1
2022-10-06T02:15:09.580Z,13.1
2022-10-06T02:18:09.585Z,13.2
2022-10-06T02:21:09.528Z,13.2
2022-10-06T02:24:09.643Z,13.2
2022-10-06T02:27:09.482Z,13.2
2022-10-06T02:30:09.536Z,13.2
2022-10-06T02:33:09.462Z,13.2
2022-10-06T02:36:09.478Z,13.1
2022-10-06T02:39:09.496Z,13.1
2022-10-06T02:42:09.447Z,13.1
2022-10-06T02:45:09.453Z,13.1
2022-10-06T02:48:09.440Z,13.1
2022-10-06T02:51:09.592Z,13.1
2022-10-06T02:54:09.607Z,13.1
2022-10-06T02:57:09.487Z,13.1
2022-10-06T03:00:09.562Z,13
2022-10-06T03:03:09.838Z,13.1
2022-10-06T03:06:09.484Z,13.1
2022-10-06T03:09:09.487Z,13.1
2022-10-06T03:12:09.541Z,13.1
2022-10-06T03:15:09.476Z,13.2
2022-10-06T03:18:09.546Z,13.1
2022-10-06T03:21:09.482Z,13.1
2022-10-06T03:24:09.500Z,13.1
2022-10-06T03:27:09.437Z,13.1
2022-10-06T03:30:09.672Z,13
2022-10-06T03:33:09.445Z,13
2022-10-06T03:36:09.453Z,13
2022-10-06T03:39:09.640Z,13
2022-10-06T03:42:09.467Z,13
2022-10-06T03:45:09.497Z,13
2022-10-06T03:48:09.516Z,13
2022-10-06T03:51:09.452Z,12.9
2022-10-06T03:54:09.576Z,12.8
2022-10-06T03:57:09.441Z,12.7
2022-10-06T04:00:09.663Z,12.6
2022-10-06T04:03:09.540Z,12.5
2022-10-06T04:06:09.707Z,12.5
2022-10-06T04:09:15.465Z,12.6
2022-10-06T04:12:09.536Z,12.4
2022-10-06T04:15:09.564Z,12.5
2022-10-06T04:18:09.487Z,12.4
2022-10-06T04:21:09.440Z,12.4
2022-10-06T04:24:09.594Z,12.4
2022-10-06T04:27:09.497Z,12.3
2022-10-06T04:30:09.557Z,12.3
2022-10-06T04:33:09.485Z,12.2
2022-10-06T04:36:09.441Z,12.1
2022-10-06T04:39:09.453Z,12
2022-10-06T04:42:09.515Z,11.9
2022-10-06T04:45:09.559Z,11.8
2022-10-06T04:48:12.241Z,11.8
2022-10-06T04:51:09.466Z,11.8
2022-10-06T04:54:09.467Z,11.8
2022-10-06T04:57:09.517Z,11.7
2022-10-06T05:00:21.782Z,11.6
2022-10-06T05:03:09.504Z,11.6
2022-10-06T05:06:09.516Z,11.6
2022-10-06T05:09:09.531Z,11.6
2022-10-06T05:12:09.518Z,11.6
2022-10-06T05:15:09.452Z,11.6
2022-10-06T05:18:09.516Z,11.7
2022-10-06T05:21:15.697Z,11.8
2022-10-06T05:24:09.854Z,11.8
2022-10-06T05:27:11.093Z,11.8
2022-10-06T05:30:09.704Z,11.8
2022-10-06T05:33:09.449Z,11.8
2022-10-06T05:36:09.555Z,11.8
2022-10-06T05:39:09.579Z,11.7
2022-10-06T05:42:09.497Z,11.7
2022-10-06T05:45:09.549Z,11.7
2022-10-06T05:48:09.472Z,11.6
2022-10-06T05:51:09.503Z,11.6
2022-10-06T05:54:09.539Z,11.6
2022-10-06T05:57:09.639Z,11.8
2022-10-06T06:00:09.614Z,11.8
2022-10-06T06:03:09.853Z,11.8
2022-10-06T06:06:10.033Z,11.9
2022-10-06T06:09:09.557Z,11.9
2022-10-06T06:12:09.593Z,11.9
2022-10-06T06:15:09.556Z,12.1
2022-10-06T06:18:09.478Z,12.3
2022-10-06T06:21:09.502Z,12.4
2022-10-06T06:24:09.454Z,12.6
2022-10-06T06:27:09.547Z,12.7
2022-10-06T06:30:09.566Z,12.8
2022-10-06T06:33:09.523Z,12.9
2022-10-06T06:36:09.468Z,12.9
2022-10-06T06:39:09.533Z,13
2022-10-06T06:42:09.600Z,13.1
2022-10-06T06:45:09.545Z,13.2
2022-10-06T06:48:09.535Z,13.3
2022-10-06T06:51:09.566Z,13.3
2022-10-06T06:54:09.648Z,13.3
2022-10-06T06:57:09.499Z,13.1
2022-10-06T07:00:09.620Z,12.9
2022-10-06T07:03:09.536Z,12.8
2022-10-06T07:06:09.560Z,12.7
2022-10-06T07:09:09.488Z,12.7
2022-10-06T07:12:09.518Z,13.3
2022-10-06T07:15:09.871Z,14.4
2022-10-06T07:18:09.621Z,15.4
2022-10-06T07:21:09.550Z,15.9
2022-10-06T07:24:09.518Z,15.5
2022-10-06T07:27:09.521Z,15
2022-10-06T07:30:09.572Z,15
2022-10-06T07:33:09.500Z,15.6
2022-10-06T07:36:09.486Z,15.8
2022-10-06T07:39:09.554Z,16.1
2022-10-06T07:42:09.581Z,16.9
2022-10-06T07:45:09.513Z,17.4
2022-10-06T07:48:09.716Z,17.9
2022-10-06T07:51:09.587Z,18
2022-10-06T07:54:09.450Z,17.7
2022-10-06T07:57:09.612Z,17.7
2022-10-06T08:00:12.392Z,17.9
2022-10-06T08:03:10.073Z,18.3
2022-10-06T08:06:09.501Z,18.3
2022-10-06T08:09:09.507Z,18.5
2022-10-06T08:12:09.709Z,18.4
2022-10-06T08:15:16.327Z,18.4
2022-10-06T08:18:48.148Z,18.5
2022-10-06T08:21:09.497Z,18.2
2022-10-06T08:24:09.544Z,18.1
2022-10-06T08:27:09.580Z,18.3
2022-10-06T08:30:10.545Z,17.9
2022-10-06T08:33:09.534Z,18.3
2022-10-06T08:36:09.516Z,18.5
2022-10-06T08:39:09.659Z,18.9
2022-10-06T08:42:09.579Z,19.1
2022-10-06T08:45:09.521Z,19.2
2022-10-06T08:48:09.713Z,18.7
2022-10-06T08:51:09.614Z,18.6
2022-10-06T08:54:09.531Z,17.9
2022-10-06T08:57:09.509Z,17.4
2022-10-06T09:00:09.567Z,16.9
2022-10-06T09:03:09.629Z,16.8
2022-10-06T09:06:09.538Z,17.4
2022-10-06T09:09:09.628Z,18
2022-10-06T09:12:09.640Z,18.9
2022-10-06T09:15:09.616Z,18.3
2022-10-06T09:18:09.628Z,17.5
2022-10-06T09:21:09.617Z,17.5
2022-10-06T09:24:09.539Z,17.9
2022-10-06T09:27:09.555Z,18.3
2022-10-06T09:30:09.653Z,19.1
2022-10-06T09:33:09.505Z,19.8
2022-10-06T09:36:09.548Z,19.1
2022-10-06T09:39:09.718Z,17.9
2022-10-06T09:42:09.744Z,17.7
2022-10-06T09:45:09.547Z,18.3
2022-10-06T09:48:09.517Z,18.4
2022-10-06T09:51:09.588Z,18.7
2022-10-06T09:54:09.604Z,19.3
2022-10-06T09:57:09.558Z,19.4
2022-10-06T10:00:09.631Z,19.8
2022-10-06T10:03:10.003Z,20
2022-10-06T10:06:09.512Z,19.9
2022-10-06T10:09:09.612Z,19.9
2022-10-06T10:12:09.720Z,19.8
2022-10-06T10:15:09.542Z,20
2022-10-06T10:18:09.791Z,19.6
2022-10-06T10:21:09.557Z,19.9
2022-10-06T10:24:09.622Z,20
2022-10-06T10:27:09.619Z,20.1
2022-10-06T10:30:09.684Z,19.9
2022-10-06T10:33:09.608Z,19.8
2022-10-06T10:36:09.628Z,19.9
2022-10-06T10:39:09.443Z,19.9
2022-10-06T10:42:09.634Z,19.9
2022-10-06T10:45:09.668Z,19.8
2022-10-06T10:48:09.553Z,19.7
2022-10-06T10:51:09.592Z,19.9
2022-10-06T10:54:09.561Z,19.9
2022-10-06T10:57:09.508Z,20.3
2022-10-06T11:00:09.622Z,20.5
2022-10-06T11:06:09.552Z,20
2022-10-06T11:09:09.515Z,20.1
2022-10-06T11:12:09.651Z,20.1
2022-10-06T11:15:10.527Z,20.1
2022-10-06T11:18:09.678Z,20.1
2022-10-06T11:21:09.491Z,19.8
2022-10-06T11:24:09.580Z,18.9
2022-10-06T11:27:09.594Z,19.1
2022-10-06T11:30:10.225Z,19.6
2022-10-06T11:33:09.560Z,20.1
2022-10-06T11:36:09.617Z,20.3
2022-10-06T11:39:09.612Z,20.7
2022-10-06T11:42:09.680Z,21.2
2022-10-06T11:45:10.547Z,21.6
2022-10-06T11:48:09.546Z,21.6
2022-10-06T11:51:09.497Z,21.7
2022-10-06T11:54:09.645Z,21.6
2022-10-06T11:57:09.559Z,21.3
2022-10-06T12:00:09.691Z,21.2
2022-10-06T12:03:10.397Z,20.8
2022-10-06T12:06:09.582Z,20.1
2022-10-06T12:09:09.553Z,19.4
2022-10-06T12:12:09.590Z,19.1
2022-10-06T12:18:09.657Z,19.6
2022-10-06T12:21:09.500Z,19.9
2022-10-06T12:24:09.970Z,20.1
2022-10-06T12:27:09.576Z,20.3
2022-10-06T12:30:11.190Z,20.2
2022-10-06T12:33:09.587Z,20.1
2022-10-06T12:36:09.613Z,19.9
2022-10-06T12:39:09.636Z,19.9
2022-10-06T12:42:09.549Z,19.9
2022-10-06T12:45:10.520Z,19.8
2022-10-06T12:48:09.575Z,19.8
2022-10-06T12:51:09.504Z,19.8
2022-10-06T12:54:09.573Z,19.8
2022-10-06T12:57:09.508Z,19.7
2022-10-06T13:00:09.903Z,19.7
2022-10-06T13:03:09.516Z,19.9
2022-10-06T13:06:09.514Z,19.8
2022-10-06T13:09:09.600Z,19.9
2022-10-06T13:12:09.553Z,19.8
2022-10-06T13:15:10.217Z,19.8
2022-10-06T13:18:09.569Z,19.8
2022-10-06T13:21:09.551Z,19.9
2022-10-06T13:24:09.544Z,19.8
2022-10-06T13:27:09.540Z,19.6
2022-10-06T13:30:10.409Z,19.6
2022-10-06T13:33:09.540Z,19.2
2022-10-06T13:36:09.610Z,19.1
2022-10-06T13:39:09.571Z,19.3
2022-10-06T13:42:09.600Z,19.4
2022-10-06T13:45:09.693Z,19.6
2022-10-06T13:48:09.501Z,19.8
2022-10-06T13:51:09.680Z,19.5
2022-10-06T13:54:09.578Z,19.6
2022-10-06T13:57:09.560Z,19.5
2022-10-06T14:00:10.747Z,19.3
2022-10-06T14:03:10.153Z,19.3
2022-10-06T14:06:09.537Z,19.2
2022-10-06T14:09:09.576Z,19.3
2022-10-06T14:12:09.550Z,19
2022-10-06T14:15:10.520Z,19
2022-10-06T14:18:09.620Z,18.9
2022-10-06T14:21:09.539Z,19.1
2022-10-06T14:24:16.782Z,19.3
2022-10-06T14:27:09.551Z,19.4
2022-10-06T14:30:10.825Z,19.3
2022-10-06T14:33:09.572Z,19.1
2022-10-06T14:36:09.540Z,19
2022-10-06T14:39:09.590Z,18.9
2022-10-06T14:42:09.547Z,19
2022-10-06T14:45:10.379Z,18.9
2022-10-06T14:48:09.501Z,18.9
2022-10-06T14:51:09.541Z,19
2022-10-06T14:54:09.520Z,18.9
2022-10-06T14:57:09.535Z,18.6
2022-10-06T15:00:10.848Z,18.5
2022-10-06T15:03:10.097Z,18.1
2022-10-06T15:06:09.539Z,17.9
2022-10-06T15:09:09.542Z,17.8
2022-10-06T15:12:09.507Z,17.7
2022-10-06T15:15:09.549Z,17.8
2022-10-06T15:18:09.528Z,17.6
2022-10-06T15:21:09.601Z,17.5
2022-10-06T15:24:09.555Z,17.4
2022-10-06T15:27:09.609Z,17.2
2022-10-06T15:30:09.609Z,17.2
2022-10-06T15:33:09.577Z,17
2022-10-06T15:36:09.522Z,16.9
2022-10-06T15:39:09.586Z,16.8
2022-10-06T15:42:11.025Z,16.7
2022-10-06T15:45:16.485Z,16.6
2022-10-06T15:48:09.880Z,16.5
2022-10-06T15:51:09.541Z,16.4
2022-10-06T15:54:09.643Z,16.3
2022-10-06T15:57:09.460Z,16.2
2022-10-06T16:00:09.581Z,16
2022-10-06T16:03:09.994Z,15.9
2022-10-06T16:06:09.591Z,15.8
2022-10-06T16:09:09.639Z,15.8
2022-10-06T16:12:09.503Z,15.7
2022-10-06T16:15:09.512Z,15.6
2022-10-06T16:18:09.565Z,15.5
2022-10-06T16:21:09.520Z,15.4
2022-10-06T16:24:09.581Z,15.3
2022-10-06T16:27:09.546Z,15.1
2022-10-06T16:30:09.640Z,14.9
2022-10-06T16:33:09.504Z,14.7
2022-10-06T16:36:09.495Z,14.6
2022-10-06T16:39:09.572Z,14.3
2022-10-06T16:42:09.725Z,14.1
2022-10-06T16:45:09.637Z,13.9
2022-10-06T16:48:09.486Z,13.7
2022-10-06T16:51:09.516Z,13.4
2022-10-06T16:54:09.499Z,13.2
2022-10-06T16:57:09.514Z,12.9
2022-10-06T17:00:09.449Z,12.7
2022-10-06T17:03:09.524Z,12.5
2022-10-06T17:06:09.511Z,12.4
2022-10-06T17:09:09.493Z,12.1
2022-10-06T17:12:09.506Z,11.9
2022-10-06T17:15:09.453Z,11.8
2022-10-06T17:18:09.517Z,11.6
2022-10-06T17:21:54.282Z,11.6
2022-10-06T17:24:09.544Z,11.4
2022-10-06T17:27:09.478Z,11.4
2022-10-06T17:30:09.478Z,11.3
2022-10-06T17:33:09.498Z,11.1
2022-10-06T17:36:09.491Z,10.9
2022-10-06T17:39:09.538Z,10.9
2022-10-06T17:42:09.496Z,10.8
2022-10-06T17:45:09.497Z,10.6
2022-10-06T17:48:09.519Z,10.4
2022-10-06T17:51:09.512Z,10.3
2022-10-06T17:54:09.494Z,10.1
2022-10-06T17:57:09.507Z,10
2022-10-06T18:00:09.496Z,9.9
2022-10-06T18:03:09.477Z,9.6
2022-10-06T18:06:09.523Z,9.4
2022-10-06T18:09:09.474Z,9.1
2022-10-06T18:12:09.512Z,8.9
2022-10-06T18:15:09.481Z,8.7
2022-10-06T18:18:09.469Z,8.5
2022-10-06T18:21:09.462Z,8.4
2022-10-06T18:24:09.456Z,8.3
2022-10-06T18:27:09.544Z,8.1
2022-10-06T18:30:09.495Z,8
2022-10-06T18:36:23.697Z,7.9
2022-10-06T18:39:09.501Z,7.9
2022-10-06T18:42:09.498Z,7.9
2022-10-06T18:45:09.526Z,7.9
2022-10-06T18:48:09.461Z,7.9
2022-10-06T18:51:09.444Z,7.8
2022-10-06T18:54:09.527Z,7.6
2022-10-06T18:57:09.435Z,7.5
2022-10-06T19:00:09.540Z,7.4
2022-10-06T19:03:09.436Z,7.3
2022-10-06T19:06:09.537Z,7.2
2022-10-06T19:09:09.440Z,7.2
2022-10-06T19:12:09.523Z,7.1
2022-10-06T19:15:09.436Z,7
2022-10-06T19:18:09.499Z,6.9
2022-10-06T19:21:15.251Z,6.9
2022-10-06T19:24:09.497Z,6.9
2022-10-06T19:27:09.487Z,6.9
2022-10-06T19:30:09.556Z,6.9
2022-10-06T19:33:09.508Z,6.9
2022-10-06T19:36:09.468Z,6.9
2022-10-06T19:39:09.468Z,6.9
2022-10-06T19:42:09.474Z,7
2022-10-06T19:45:09.473Z,6.9
2022-10-06T19:48:09.476Z,6.9
2022-10-06T19:51:09.481Z,6.9
2022-10-06T19:54:09.475Z,6.8
2022-10-06T19:57:14.641Z,6.7
2022-10-06T20:00:09.571Z,6.6
2022-10-06T20:03:09.434Z,6.4
2022-10-06T20:06:09.487Z,6.4
2022-10-06T20:09:09.473Z,6.6
2022-10-06T20:12:09.504Z,6.7
2022-10-06T20:15:09.463Z,6.8
2022-10-06T20:18:09.483Z,6.9
2022-10-06T20:21:09.951Z,7
2022-10-06T20:24:09.506Z,7.1
2022-10-06T20:27:09.534Z,7.2
2022-10-06T20:30:09.599Z,7.3
2022-10-06T20:33:09.415Z,7.4
2022-10-06T20:36:09.488Z,7.4
2022-10-06T20:39:09.521Z,7.4
2022-10-06T20:42:15.825Z,7.3
2022-10-06T20:45:09.599Z,7.2
2022-10-06T20:48:09.517Z,7.1
2022-10-06T20:51:09.502Z,7.1
2022-10-06T20:54:09.521Z,7
2022-10-06T20:57:09.476Z,6.9
2022-10-06T21:00:09.554Z,6.7
2022-10-06T21:03:10.258Z,6.6
2022-10-06T21:06:09.996Z,6.4
2022-10-06T21:09:09.757Z,6.2
2022-10-06T21:12:09.750Z,6.2
2022-10-06T21:15:09.717Z,6.4
2022-10-06T21:18:09.778Z,6.6
2022-10-06T21:21:09.732Z,6.6
2022-10-06T21:24:09.730Z,6.6
2022-10-06T21:27:09.756Z,6.4
2022-10-06T21:30:09.778Z,6.4
2022-10-06T21:33:09.730Z,6.2
2022-10-06T21:36:09.746Z,6.1
2022-10-06T21:39:09.790Z,5.9
2022-10-06T21:42:09.761Z,5.7
2022-10-06T21:45:09.708Z,5.6
2022-10-06T21:48:09.761Z,5.5
2022-10-06T21:51:09.749Z,5.4
2022-10-06T21:54:09.792Z,5.3
2022-10-06T21:57:09.703Z,5.2
2022-10-06T22:00:10.824Z,5.1
2022-10-06T22:03:10.170Z,5.1
2022-10-06T22:06:09.773Z,4.9
2022-10-06T22:09:09.815Z,5
2022-10-06T22:12:09.686Z,4.9
2022-10-06T22:15:09.706Z,4.8
2022-10-06T22:18:09.731Z,4.7
2022-10-06T22:21:09.713Z,4.7
2022-10-06T22:24:09.740Z,4.8
2022-10-06T22:27:09.776Z,4.7
2022-10-06T22:30:09.710Z,4.7
2022-10-06T22:33:09.755Z,4.7
2022-10-06T22:36:09.735Z,4.7
2022-10-06T22:39:09.775Z,4.8
2022-10-06T22:42:09.715Z,4.7
2022-10-06T22:45:09.767Z,4.8
2022-10-06T22:48:09.710Z,4.9
2022-10-06T22:51:09.746Z,5.1
2022-10-06T22:54:09.749Z,5.4
2022-10-06T22:57:09.698Z,5.4
2022-10-06T23:00:09.858Z,5.4
2022-10-06T23:03:10.126Z,5.4
2022-10-06T23:06:09.732Z,5.3
2022-10-06T23:09:09.725Z,5.1
2022-10-06T23:12:09.736Z,4.9
2022-10-06T23:15:09.720Z,4.9
2022-10-06T23:18:09.775Z,4.9
2022-10-06T23:21:09.717Z,4.7
2022-10-06T23:24:09.773Z,4.8
2022-10-06T23:27:09.736Z,4.8
2022-10-06T23:30:09.724Z,4.7
2022-10-06T23:33:09.709Z,4.6
2022-10-06T23:36:09.767Z,4.6
2022-10-06T23:39:09.740Z,4.6
2022-10-06T23:42:09.684Z,4.5
2022-10-06T23:45:09.776Z,4.4
2022-10-06T23:48:09.771Z,4.4
2022-10-06T23:51:09.794Z,4.6
2022-10-06T23:54:09.796Z,4.6
2022-10-06T23:57:09.734Z,4.7
